Marienberg, Germany

9:56 AM CEST on October 24, 2014 (GMT +0200)
Großolbersdorf | Change Station
CLOSE
Current Station
Personal Weather Station
Location: Großolbersdorf, SACHSEN
Elevation: 1624 ft
Nearby Weather Stations

Elev 1624 ft 50.70 °N, 13.09 °E | Updated 11 seconds ago

Mostly Cloudy
Mostly Cloudy
45.5 °F
Feels Like 46 °F
N
1.3
Wind Variable Wind from East
Gusts 2.5 mph

Today
High -- | Low -- °F
--% Chance of Precip.
Yesterday
High -- | Low -- °F
Precip. -- in
7:44 AM 5:57 PM
New Moon, 0% visible
Pressure 30.24 in
Visibility 2.8 miles
Clouds Mostly Cloudy 3700 ft
Windchill 46 °F
Dew Point 45 °F
Humidity 97%
Rainfall 0.00 in
Snow Depth Not available.
UV 1.0 out of 12
Pollen Not available.
Air Quality Not available.
Flu Activity Not available.
METAR EDAC 240750Z VRB01KT 4500 BR BKN037 10/10 Q1024

More Conditions Fewer Conditions

Pressure 30.24 in
Visibility 2.8 miles
Clouds Mostly Cloudy 3700 ft
Windchill 46 °F
Dew Point 45 °F
Humidity 97%
Rainfall 0.00 in
Snow Depth Not available.
UV 1.0 out of 12
Pollen Not available.
Air Quality Not available.
Flu Activity Not available.
METAR EDAC 240750Z VRB01KT 4500 BR BKN037 10/10 Q1024

More Conditions Fewer Conditions

10-Day Weather Forecast

Almanac

Astronomy

Oct. 24, 2014 Rise Set
Actual Time 7:44 AM CEST 5:57 PM CEST
Civil Twilight 7:11 AM CEST 6:31 PM CEST
Nautical Twilight 6:32 AM CEST 7:09 PM CEST
Astronomical Twilight 5:54 AM CEST 7:47 PM CEST
Moon 8:08 AM CEST 6:22 PM CEST
Length of Visible Light 11h 20m
Length of Day
10h 12m
Tomorrow will be 3m 36s shorter.
New Moon, 0% of the Moon is Illuminated
Today
New Moon
Oct 30
First Quarter
Nov 6
Full
Nov 14
Last Quarter
Nov 22
New

Yesterday's Extremes

Country Highs Country Lows

Community

WunderPhotos

Upload Photos

1,764,512 photos uploaded!

WunderBlogs® & News

Nearby

Snow Depth

Not available.

Earthquake Activity

City Distance Mag. Time & Date
No recent earthquake activity has been reported nearby.
Minimum magnitude displayed is 2.5.

Coastal Water Temperatures

Place Temperature
No Stations Reporting

Nearby Weather Stations